createdAt,value
2018-06-11T00:00:13.363Z,62.77
2018-06-11T00:01:13.347Z,63.15
2018-06-11T00:02:13.331Z,62.29
2018-06-11T00:03:13.319Z,62.29
2018-06-11T00:04:13.315Z,62.38
2018-06-11T00:05:13.291Z,62.10
2018-06-11T00:06:13.277Z,61.61
2018-06-11T00:07:13.265Z,61.52
2018-06-11T00:08:13.247Z,62.00
2018-06-11T00:09:13.246Z,61.81
2018-06-11T00:10:13.218Z,61.91
2018-06-11T00:11:13.206Z,61.61
2018-06-11T00:12:13.185Z,61.97
2018-06-11T00:13:13.178Z,62.07
2018-06-11T00:14:13.161Z,62.26
2018-06-11T00:15:13.165Z,61.71
2018-06-11T00:16:13.135Z,62.35
2018-06-11T00:17:13.119Z,62.45
2018-06-11T00:18:13.110Z,62.48
2018-06-11T00:19:13.097Z,61.61
2018-06-11T00:20:13.088Z,61.52
2018-06-11T00:21:13.066Z,61.81
2018-06-11T00:22:13.046Z,62.16
2018-06-11T00:23:13.034Z,62.48
2018-06-11T00:24:13.022Z,62.96
2018-06-11T00:25:13.022Z,62.29
2018-06-11T00:26:12.991Z,62.29
2018-06-11T00:27:12.977Z,63.02
2018-06-11T00:28:12.963Z,63.54
2018-06-11T00:29:12.948Z,64.09
2018-06-11T00:30:12.948Z,63.51
2018-06-11T00:31:12.924Z,62.55
2018-06-11T00:32:12.905Z,62.58
2018-06-11T00:33:12.890Z,61.97
2018-06-11T00:34:12.876Z,61.87
2018-06-11T00:35:12.880Z,62.35
2018-06-11T00:36:12.846Z,61.78
2018-06-11T00:37:12.850Z,61.49
2018-06-11T00:38:12.817Z,61.43
2018-06-11T00:39:12.807Z,61.97
2018-06-11T00:40:12.797Z,61.43
2018-06-11T00:41:12.777Z,61.87
2018-06-11T00:42:12.764Z,61.71
2018-06-11T00:43:12.765Z,62.19
2018-06-11T00:44:12.731Z,62.00
2018-06-11T00:45:12.733Z,62.00
2018-06-11T00:46:12.704Z,63.35
2018-06-11T00:47:12.696Z,64.22
2018-06-11T00:48:12.675Z,64.31
2018-06-11T00:49:12.659Z,65.17
2018-06-11T00:50:12.644Z,64.98
2018-06-11T00:51:12.643Z,64.22
2018-06-11T00:52:12.615Z,63.73
2018-06-11T00:53:12.605Z,64.40
2018-06-11T00:54:12.590Z,67.38
2018-06-11T00:55:12.575Z,64.79
2018-06-11T00:56:12.576Z,66.23
2018-06-11T00:57:12.545Z,66.33
2018-06-11T00:58:12.532Z,64.98
2018-06-11T00:59:12.518Z,65.40
2018-06-11T01:00:12.517Z,65.94
2018-06-11T01:01:12.498Z,66.14
2018-06-11T01:02:12.478Z,66.61
2018-06-11T01:03:12.460Z,66.33
2018-06-11T01:04:12.446Z,65.84
2018-06-11T01:05:12.436Z,65.84
2018-06-11T01:06:12.428Z,66.42
2018-06-11T01:07:12.405Z,64.50
2018-06-11T01:08:12.392Z,66.04
2018-06-11T01:09:12.373Z,65.75
2018-06-11T01:10:12.360Z,65.46
2018-06-11T01:11:12.354Z,63.92
2018-06-11T01:12:12.337Z,62.58
2018-06-11T01:13:12.318Z,62.38
2018-06-11T01:14:12.302Z,62.19
2018-06-11T01:15:12.287Z,61.52
2018-06-11T01:16:12.288Z,61.33
2018-06-11T01:17:12.259Z,60.85
2018-06-11T01:18:12.242Z,60.08
2018-06-11T01:19:12.238Z,59.99
2018-06-11T01:20:12.216Z,59.89
2018-06-11T01:21:12.213Z,60.56
2018-06-11T01:22:12.189Z,60.17
2018-06-11T01:23:12.171Z,59.99
2018-06-11T01:24:12.160Z,59.99
2018-06-11T01:25:12.148Z,60.75
2018-06-11T01:26:12.148Z,61.04
2018-06-11T01:27:12.116Z,60.75
2018-06-11T01:28:12.100Z,60.82
2018-06-11T01:29:12.088Z,60.82
2018-06-11T01:30:12.084Z,60.91
2018-06-11T01:31:12.072Z,60.72
2018-06-11T01:32:12.042Z,60.91
2018-06-11T01:33:12.034Z,60.53
2018-06-11T01:34:12.016Z,60.14
2018-06-11T01:35:12.001Z,60.34
2018-06-11T01:36:11.998Z,60.24
2018-06-11T01:37:11.972Z,60.24
2018-06-11T01:38:11.958Z,59.95
2018-06-11T01:39:11.940Z,60.05
2018-06-11T01:40:11.929Z,60.05
2018-06-11T01:41:12.202Z,59.86
2018-06-11T01:42:11.900Z,59.86
2018-06-11T01:43:11.885Z,59.86
2018-06-11T01:44:11.875Z,59.86
2018-06-11T01:45:11.861Z,61.01
2018-06-11T01:46:11.844Z,62.35
2018-06-11T01:47:11.838Z,61.30
2018-06-11T01:48:11.818Z,61.30
2018-06-11T01:49:11.806Z,61.58
2018-06-11T01:50:11.786Z,60.91
2018-06-11T01:51:11.776Z,61.68
2018-06-11T01:52:12.036Z,61.30
2018-06-11T01:53:11.747Z,61.87
2018-06-11T01:54:11.729Z,62.16
2018-06-11T01:55:11.719Z,61.14
2018-06-11T01:56:11.700Z,62.84
2018-06-11T01:57:11.684Z,63.64
2018-06-11T01:58:11.684Z,63.60
2018-06-11T01:59:11.657Z,70.27
2018-06-11T02:00:11.637Z,70.07
2018-06-11T02:01:11.628Z,68.35
2018-06-11T02:02:11.612Z,70.23
2018-06-11T02:03:11.612Z,68.89
2018-06-11T02:04:11.584Z,69.02
2018-06-11T02:05:11.566Z,68.73
2018-06-11T02:06:11.566Z,68.51
2018-06-11T02:07:11.541Z,68.79
2018-06-11T02:08:11.541Z,67.16
2018-06-11T02:09:11.510Z,67.35
2018-06-11T02:10:11.495Z,68.31
2018-06-11T02:11:11.483Z,65.72
2018-06-11T02:12:11.475Z,68.79
2018-06-11T02:13:11.466Z,68.89
2018-06-11T02:14:11.439Z,67.93
2018-06-11T02:15:11.429Z,67.16
2018-06-11T02:16:11.411Z,67.45
2018-06-11T02:17:11.394Z,67.74
2018-06-11T02:18:11.393Z,67.35
2018-06-11T02:19:11.364Z,67.16
2018-06-11T02:20:11.354Z,67.07
2018-06-11T02:21:11.339Z,65.33
2018-06-11T02:22:11.327Z,66.00
2018-06-11T02:23:11.322Z,66.36
2018-06-11T02:24:11.298Z,65.88
2018-06-11T02:25:11.279Z,67.41
2018-06-11T02:26:11.272Z,66.97
2018-06-11T02:27:11.250Z,67.93
2018-06-11T02:28:11.236Z,67.93
2018-06-11T02:29:11.234Z,67.45
2018-06-11T02:30:11.213Z,67.35
2018-06-11T02:31:11.193Z,67.45
2018-06-11T02:32:11.181Z,67.74
2018-06-11T02:33:11.163Z,67.64
2018-06-11T02:34:11.148Z,67.74
2018-06-11T02:35:11.144Z,68.02
2018-06-11T02:36:11.184Z,68.21
2018-06-11T02:37:12.040Z,67.35
2018-06-11T02:38:11.093Z,68.02
2018-06-11T02:39:11.176Z,66.00
2018-06-11T02:40:11.561Z,66.00
2018-06-11T02:41:11.169Z,66.20
2018-06-11T02:42:11.538Z,65.72
2018-06-11T02:43:11.201Z,67.35
2018-06-11T02:44:11.508Z,66.87
2018-06-11T02:45:11.194Z,69.08
2018-06-11T02:46:10.973Z,68.02
2018-06-11T02:47:10.960Z,67.45
2018-06-11T02:48:10.943Z,68.02
2018-06-11T02:49:10.930Z,70.23
2018-06-11T02:50:10.927Z,70.14
2018-06-11T02:51:10.901Z,68.41
2018-06-11T02:52:10.885Z,70.14
2018-06-11T02:53:10.870Z,68.89
2018-06-11T02:54:10.856Z,68.31
2018-06-11T02:55:10.863Z,69.66
2018-06-11T02:56:10.839Z,70.81
2018-06-11T02:57:10.815Z,69.66
2018-06-11T02:58:10.798Z,69.75
2018-06-11T02:59:10.793Z,68.60
2018-06-11T03:00:10.764Z,68.12
2018-06-11T03:01:10.762Z,67.45
2018-06-11T03:02:10.740Z,68.02
2018-06-11T03:03:10.727Z,69.18
2018-06-11T03:04:10.710Z,68.79
2018-06-11T03:05:10.694Z,68.89
2018-06-11T03:06:10.695Z,68.95
2018-06-11T03:07:10.667Z,69.14
2018-06-11T03:08:10.651Z,69.66
2018-06-11T03:09:10.638Z,68.37
2018-06-11T03:10:10.629Z,68.28
2018-06-11T03:11:10.620Z,68.28
2018-06-11T03:12:10.593Z,67.51
2018-06-11T03:13:10.579Z,66.93
2018-06-11T03:14:10.565Z,67.22
2018-06-11T03:15:10.549Z,65.88
2018-06-11T03:16:10.546Z,66.16
2018-06-11T03:17:10.532Z,65.40
2018-06-11T03:18:10.505Z,65.65
2018-06-11T03:19:10.489Z,64.82
2018-06-11T03:20:10.474Z,65.75
2018-06-11T03:21:10.472Z,64.69
2018-06-11T03:22:10.469Z,65.46
2018-06-11T03:23:10.431Z,64.89
2018-06-11T03:24:10.422Z,64.89
2018-06-11T03:25:10.403Z,64.59
2018-06-11T03:26:10.405Z,64.69
2018-06-11T03:27:10.374Z,64.79
2018-06-11T03:28:10.355Z,64.12
2018-06-11T03:29:10.346Z,63.92
2018-06-11T03:30:10.328Z,63.73
2018-06-11T03:31:10.314Z,63.25
2018-06-11T03:32:10.315Z,62.29
2018-06-11T03:33:10.287Z,62.01
2018-06-11T03:34:10.269Z,62.29
2018-06-11T03:35:10.251Z,62.10
2018-06-11T03:36:10.239Z,62.39
2018-06-11T03:37:10.239Z,61.81
2018-06-11T03:38:10.208Z,62.10
2018-06-11T03:39:10.194Z,62.39
2018-06-11T03:40:10.196Z,62.68
2018-06-11T03:41:10.167Z,62.19
2018-06-11T03:42:10.160Z,62.77
2018-06-11T03:43:10.142Z,63.35
2018-06-11T03:44:10.121Z,63.64
2018-06-11T03:45:10.110Z,62.87
2018-06-11T03:46:10.095Z,62.96
2018-06-11T03:47:10.084Z,62.48
2018-06-11T03:48:10.062Z,62.39
2018-06-11T03:49:10.051Z,62.45
2018-06-11T03:50:10.032Z,62.96
2018-06-11T03:51:10.020Z,62.96
2018-06-11T03:52:10.015Z,62.65
2018-06-11T03:53:09.986Z,62.93
2018-06-11T03:54:09.976Z,62.16
2018-06-11T03:55:09.958Z,62.10
2018-06-11T03:56:09.942Z,62.45
2018-06-11T03:57:09.950Z,62.68
2018-06-11T03:58:09.914Z,62.87
2018-06-11T03:59:09.896Z,63.45
2018-06-11T04:00:09.883Z,63.45
2018-06-11T04:01:09.868Z,63.25
2018-06-11T04:02:09.868Z,63.64
2018-06-11T04:03:09.856Z,62.48
2018-06-11T04:04:09.822Z,63.06
2018-06-11T04:05:09.805Z,62.48
2018-06-11T04:06:09.792Z,62.39
2018-06-11T04:07:17.391Z,62.87
2018-06-11T04:08:09.764Z,63.45
2018-06-11T04:09:20.114Z,63.25
2018-06-11T04:10:09.739Z,63.73
2018-06-11T04:11:09.812Z,63.45
2018-06-11T04:12:09.702Z,63.57
2018-06-11T04:13:09.695Z,63.76
2018-06-11T04:14:09.669Z,64.15
2018-06-11T04:15:09.655Z,65.59
2018-06-11T04:16:09.642Z,65.30
2018-06-11T04:17:09.625Z,66.84
2018-06-11T04:18:09.624Z,68.08
2018-06-11T04:19:09.602Z,65.59
2018-06-11T04:20:09.584Z,67.32
2018-06-11T04:21:09.567Z,68.08
2018-06-11T04:22:09.551Z,67.51
2018-06-11T04:23:09.549Z,68.08
2018-06-11T04:24:09.522Z,69.95
2018-06-11T04:25:09.506Z,70.04
2018-06-11T04:26:09.496Z,71.77
2018-06-11T04:27:09.478Z,70.33
2018-06-11T04:28:09.473Z,71.77
2018-06-11T04:29:09.454Z,71.00
2018-06-11T04:30:09.436Z,71.19
2018-06-11T04:31:09.421Z,71.39
2018-06-11T04:32:09.399Z,71.00
2018-06-11T04:33:09.395Z,71.29
2018-06-11T04:34:09.373Z,70.90
2018-06-11T04:35:09.358Z,73.21
2018-06-11T04:36:09.435Z,71.96
2018-06-11T04:37:09.345Z,74.08
2018-06-11T04:38:09.326Z,73.31
2018-06-11T04:39:09.303Z,71.48
2018-06-11T04:40:09.317Z,73.98
2018-06-11T04:41:09.277Z,73.88
2018-06-11T04:42:09.258Z,73.41
2018-06-11T04:43:09.253Z,72.92
2018-06-11T04:44:09.231Z,74.65
2018-06-11T04:45:09.211Z,74.94
2018-06-11T04:46:09.203Z,74.65
2018-06-11T04:47:09.183Z,75.13
2018-06-11T04:48:09.184Z,75.13
2018-06-11T04:49:09.157Z,75.13
2018-06-11T04:50:09.138Z,74.85
2018-06-11T04:51:09.124Z,75.32
2018-06-11T04:52:09.110Z,73.60
2018-06-11T04:53:09.095Z,74.85
2018-06-11T04:54:09.092Z,75.04
2018-06-11T04:55:09.079Z,76.09
2018-06-11T04:56:09.061Z,75.23
2018-06-11T04:57:09.042Z,74.85
2018-06-11T04:58:09.024Z,74.55
2018-06-11T04:59:09.022Z,74.85
2018-06-11T05:00:08.995Z,77.53
2018-06-11T05:01:08.978Z,74.94
2018-06-11T05:02:08.971Z,74.75
2018-06-11T05:03:08.956Z,76.09
2018-06-11T05:04:08.945Z,74.46
2018-06-11T05:05:08.921Z,75.23
2018-06-11T05:06:08.906Z,77.92
2018-06-11T05:07:08.893Z,78.40
2018-06-11T05:08:08.909Z,78.11
2018-06-11T05:09:08.875Z,77.34
2018-06-11T05:10:08.902Z,77.44
2018-06-11T05:11:08.834Z,80.42
2018-06-11T05:12:08.845Z,79.36
2018-06-11T05:13:08.803Z,79.84
2018-06-11T05:14:08.806Z,79.11
2018-06-11T05:15:08.776Z,76.90
2018-06-11T05:16:08.762Z,77.76
2018-06-11T05:17:08.752Z,78.25
2018-06-11T05:18:08.742Z,79.02
2018-06-11T05:19:08.717Z,79.15
2018-06-11T05:20:08.765Z,80.07
2018-06-11T05:21:08.696Z,80.02
2018-06-11T05:22:08.674Z,79.53
2018-06-11T05:23:08.661Z,79.82
2018-06-11T05:24:08.662Z,80.21
2018-06-11T05:25:08.633Z,80.30
2018-06-11T05:26:08.618Z,80.21
2018-06-11T05:27:08.603Z,80.60
2018-06-11T05:28:08.588Z,81.37
2018-06-11T05:29:08.576Z,80.30
2018-06-11T05:30:08.578Z,83.48
2018-06-11T05:31:08.551Z,83.86
2018-06-11T05:32:08.534Z,82.71
2018-06-11T05:33:08.521Z,82.23
2018-06-11T05:34:08.502Z,83.00
2018-06-11T05:35:08.503Z,81.56
2018-06-11T05:36:08.479Z,83.58
2018-06-11T05:37:08.463Z,85.02
2018-06-11T05:38:08.464Z,84.67
2018-06-11T05:39:08.434Z,85.25
2018-06-11T05:40:08.435Z,86.02
2018-06-11T05:41:08.408Z,85.44
2018-06-11T05:42:08.390Z,85.35
2018-06-11T05:43:08.389Z,86.60
2018-06-11T05:44:08.364Z,87.32
2018-06-11T05:45:08.365Z,87.46
2018-06-11T05:46:08.339Z,90.20
2018-06-11T05:47:08.330Z,92.13
2018-06-11T05:48:08.320Z,90.30
2018-06-11T05:49:08.297Z,91.55
2018-06-11T05:50:08.308Z,91.93
2018-06-11T05:51:08.271Z,91.40
2018-06-11T05:52:08.254Z,92.75
2018-06-11T05:53:08.242Z,92.65
2018-06-11T05:54:08.226Z,92.17
2018-06-11T05:55:08.220Z,91.78
2018-06-11T05:56:08.213Z,93.23
2018-06-11T05:57:08.188Z,91.98
2018-06-11T05:58:08.177Z,92.46
2018-06-11T05:59:08.162Z,92.50
2018-06-11T06:00:08.155Z,93.37
2018-06-11T06:01:08.148Z,91.44
2018-06-11T06:02:08.123Z,93.37
2018-06-11T06:03:08.110Z,93.18
2018-06-11T06:04:08.098Z,92.65
2018-06-11T06:05:08.090Z,93.66
2018-06-11T06:06:08.092Z,93.37
2018-06-11T06:07:08.059Z,92.80
2018-06-11T06:08:08.046Z,93.28
2018-06-11T06:09:08.033Z,92.84
2018-06-11T06:10:08.027Z,93.04
2018-06-11T06:11:08.023Z,95.64
2018-06-11T06:12:07.995Z,94.58
2018-06-11T06:13:07.977Z,93.90
2018-06-11T06:14:07.998Z,94.38
2018-06-11T06:15:07.958Z,93.90
2018-06-11T06:16:07.966Z,93.37
2018-06-11T06:17:07.931Z,93.85
2018-06-11T06:18:07.923Z,95.88
2018-06-11T06:19:07.907Z,94.62
2018-06-11T06:20:07.898Z,93.13
2018-06-11T06:21:07.890Z,93.76
2018-06-11T06:22:07.877Z,93.08
2018-06-11T06:23:07.862Z,91.73
2018-06-11T06:24:07.846Z,94.34
2018-06-11T06:25:07.835Z,94.62
2018-06-11T06:26:07.827Z,93.62
2018-06-11T06:27:07.845Z,94.04
2018-06-11T06:28:07.799Z,93.95
2018-06-11T06:29:07.785Z,93.95
2018-06-11T06:30:07.779Z,94.82
2018-06-11T06:31:07.810Z,94.04
2018-06-11T06:32:07.758Z,93.90
2018-06-11T06:33:07.773Z,91.53
2018-06-11T06:34:07.738Z,92.69
2018-06-11T06:35:07.716Z,93.03
2018-06-11T06:36:07.700Z,94.19
2018-06-11T06:37:07.706Z,94.82
2018-06-11T06:38:07.674Z,92.88
2018-06-11T06:39:07.662Z,94.24
2018-06-11T06:40:07.699Z,95.40
2018-06-11T06:41:07.652Z,95.01
2018-06-11T06:42:07.645Z,95.15
2018-06-11T06:43:07.616Z,94.18
2018-06-11T06:44:07.611Z,95.59
2018-06-11T06:45:07.591Z,94.91
2018-06-11T06:46:07.585Z,95.20
2018-06-11T06:47:07.589Z,94.62
2018-06-11T06:48:07.585Z,94.91
2018-06-11T06:49:07.539Z,92.93
2018-06-11T06:50:07.531Z,91.44
2018-06-11T06:51:07.523Z,92.98
2018-06-11T06:52:07.520Z,93.47
2018-06-11T06:53:07.506Z,93.80
2018-06-11T06:54:07.495Z,94.53
2018-06-11T06:55:07.479Z,94.82
2018-06-11T06:56:07.466Z,93.27
2018-06-11T06:57:07.466Z,94.24
2018-06-11T06:58:07.441Z,94.43
2018-06-11T06:59:07.449Z,94.87
2018-06-11T07:00:07.413Z,94.24
2018-06-11T07:01:07.395Z,93.85
2018-06-11T07:02:07.397Z,94.72
2018-06-11T07:03:07.393Z,93.85
2018-06-11T07:04:07.363Z,92.12
2018-06-11T07:05:07.352Z,93.28
2018-06-11T07:06:07.338Z,93.28
2018-06-11T07:07:07.332Z,93.37
2018-06-11T07:08:07.354Z,92.70
2018-06-11T07:09:07.299Z,92.70
2018-06-11T07:10:07.297Z,92.60
2018-06-11T07:11:07.276Z,94.34
2018-06-11T07:12:07.266Z,92.08
2018-06-11T07:13:07.268Z,92.46
2018-06-11T07:14:07.240Z,92.65
2018-06-11T07:15:07.231Z,93.18
2018-06-11T07:16:07.223Z,93.85
2018-06-11T07:17:07.207Z,92.16
2018-06-11T07:18:07.256Z,94.68
2018-06-11T07:19:07.181Z,92.80
2018-06-11T07:20:07.175Z,92.02
2018-06-11T07:21:07.190Z,91.35
2018-06-11T07:22:07.148Z,93.28
2018-06-11T07:23:07.214Z,93.28
2018-06-11T07:24:07.133Z,91.64
2018-06-11T07:25:07.107Z,92.26
2018-06-11T07:26:07.099Z,91.97
2018-06-11T07:27:07.172Z,92.55
2018-06-11T07:28:07.089Z,94.38
2018-06-11T07:29:07.053Z,94.29
2018-06-11T07:30:07.045Z,90.81
2018-06-11T07:31:07.033Z,90.96
2018-06-11T07:32:07.022Z,94.82
2018-06-11T07:33:07.021Z,91.35
2018-06-11T07:34:07.000Z,90.19
2018-06-11T07:35:06.989Z,91.54
2018-06-11T07:36:06.979Z,90.77
2018-06-11T07:37:06.966Z,94.05
2018-06-11T07:38:06.963Z,92.60
2018-06-11T07:39:06.936Z,92.70
2018-06-11T07:40:06.925Z,92.41
2018-06-11T07:41:06.952Z,91.93
2018-06-11T07:42:06.899Z,91.78
2018-06-11T07:43:06.887Z,92.07
2018-06-11T07:44:06.888Z,93.04
2018-06-11T07:45:06.858Z,93.90
2018-06-11T07:46:06.850Z,93.37
2018-06-11T07:47:06.836Z,92.36
2018-06-11T07:48:06.886Z,93.52
2018-06-11T07:49:06.831Z,93.23
2018-06-11T07:50:06.801Z,94.38
2018-06-11T07:51:06.788Z,94.38
2018-06-11T07:52:06.776Z,93.08
2018-06-11T07:53:06.762Z,95.78
2018-06-11T07:54:06.751Z,92.45
2018-06-11T07:55:06.750Z,96.99
2018-06-11T07:56:06.728Z,93.71
2018-06-11T07:57:06.728Z,95.15
2018-06-11T07:58:06.701Z,96.07
2018-06-11T07:59:06.692Z,96.75
2018-06-11T08:00:06.700Z,95.20
2018-06-11T08:01:06.666Z,95.01
2018-06-11T08:02:06.653Z,92.49
2018-06-11T08:03:06.644Z,95.93
2018-06-11T08:04:06.633Z,98.15
2018-06-11T08:05:06.621Z,96.26
2018-06-11T08:06:06.624Z,95.44
2018-06-11T08:07:06.600Z,96.80
2018-06-11T08:08:06.586Z,96.36
2018-06-11T08:09:06.581Z,95.87
2018-06-11T08:10:06.565Z,96.12
2018-06-11T08:11:06.561Z,96.17
2018-06-11T08:12:06.540Z,95.10
2018-06-11T08:13:06.530Z,96.75
2018-06-11T08:14:06.519Z,94.91
2018-06-11T08:15:06.507Z,96.55
2018-06-11T08:16:06.506Z,95.01
2018-06-11T08:17:06.486Z,96.26
2018-06-11T08:18:06.478Z,96.31
2018-06-11T08:19:06.461Z,94.67
2018-06-11T08:20:06.452Z,94.82
2018-06-11T08:21:06.457Z,95.01
2018-06-11T08:22:06.431Z,95.01
2018-06-11T08:23:06.418Z,94.48
2018-06-11T08:24:06.404Z,96.22
2018-06-11T08:25:06.404Z,96.46
2018-06-11T08:26:06.400Z,93.70
2018-06-11T08:27:06.378Z,96.94
2018-06-11T08:28:06.366Z,96.21
2018-06-11T08:29:06.354Z,93.89
2018-06-11T08:30:06.342Z,96.26
2018-06-11T08:31:06.608Z,94.71
2018-06-11T08:32:06.323Z,95.34
2018-06-11T08:33:06.307Z,95.44
2018-06-11T08:34:06.308Z,96.17
2018-06-11T08:35:06.294Z,95.54
2018-06-11T08:36:06.278Z,95.87
2018-06-11T08:37:06.277Z,95.10
2018-06-11T08:38:06.256Z,95.68
2018-06-11T08:39:06.248Z,96.07
2018-06-11T08:40:06.239Z,95.78
2018-06-11T08:41:06.229Z,95.83
2018-06-11T08:42:06.230Z,96.50
2018-06-11T08:43:06.209Z,94.90
2018-06-11T08:44:06.195Z,95.20
2018-06-11T08:45:06.184Z,95.97
2018-06-11T08:46:06.177Z,95.78
2018-06-11T08:47:06.184Z,94.71
2018-06-11T08:48:06.161Z,95.54
2018-06-11T08:49:06.149Z,95.34
2018-06-11T08:50:06.187Z,95.45
2018-06-11T08:51:06.126Z,95.59
2018-06-11T08:52:06.148Z,96.17
2018-06-11T08:53:06.106Z,95.15
2018-06-11T08:54:06.104Z,95.25
2018-06-11T08:55:06.087Z,94.86
2018-06-11T08:56:06.076Z,96.65
2018-06-11T08:57:06.644Z,97.42
2018-06-11T08:58:06.064Z,94.91
2018-06-11T08:59:06.043Z,93.85
2018-06-11T09:00:06.043Z,97.13
2018-06-11T09:01:06.022Z,96.46
2018-06-11T09:02:06.023Z,96.31
2018-06-11T09:03:06.021Z,96.99
2018-06-11T09:04:06.007Z,96.31
2018-06-11T09:05:05.980Z,94.90
2018-06-11T09:06:05.970Z,92.68
2018-06-11T09:07:05.998Z,95.15
2018-06-11T09:08:05.956Z,96.50
2018-06-11T09:09:05.955Z,95.05
2018-06-11T09:10:05.927Z,95.83
2018-06-11T09:11:05.922Z,95.73
2018-06-11T09:12:05.911Z,96.07
2018-06-11T09:13:05.902Z,96.07
2018-06-11T09:14:05.893Z,95.68
2018-06-11T09:15:05.878Z,95.58
2018-06-11T09:16:05.869Z,94.71
2018-06-11T09:17:05.862Z,96.46
2018-06-11T09:18:05.886Z,95.68
2018-06-11T09:19:05.859Z,96.07
2018-06-11T09:20:05.825Z,95.39
2018-06-11T09:21:05.825Z,96.26
2018-06-11T09:22:05.806Z,95.92
2018-06-11T09:23:05.803Z,93.60
2018-06-11T09:24:05.793Z,94.91
2018-06-11T09:25:05.829Z,96.12
2018-06-11T09:26:05.766Z,96.07
2018-06-11T09:27:05.758Z,95.49
2018-06-11T09:28:05.746Z,95.44
2018-06-11T09:29:05.733Z,96.41
2018-06-11T09:30:05.738Z,95.97
2018-06-11T09:31:05.764Z,95.49
2018-06-11T09:32:05.701Z,95.10
2018-06-11T09:33:05.696Z,94.23
2018-06-11T09:34:05.682Z,96.17
2018-06-11T09:35:05.686Z,95.97
2018-06-11T09:36:05.663Z,93.85
2018-06-11T09:37:05.652Z,94.23
2018-06-11T09:38:05.668Z,94.23
2018-06-11T09:39:05.631Z,93.85
2018-06-11T09:40:05.621Z,94.18
2018-06-11T09:41:05.619Z,95.25
2018-06-11T09:42:05.601Z,96.12
2018-06-11T09:43:05.588Z,96.31
2018-06-11T09:44:05.692Z,94.81
2018-06-11T09:45:05.571Z,94.81
2018-06-11T09:46:05.568Z,94.23
2018-06-11T09:47:05.546Z,95.93
2018-06-11T09:48:05.536Z,95.06
2018-06-11T09:49:05.564Z,94.72
2018-06-11T09:50:05.525Z,95.49
2018-06-11T09:51:05.783Z,94.67
2018-06-11T09:52:05.500Z,94.62
2018-06-11T09:53:05.482Z,94.82
2018-06-11T09:54:05.471Z,93.56
2018-06-11T09:55:05.477Z,94.24
2018-06-11T09:56:05.455Z,94.82
2018-06-11T09:57:05.453Z,94.62
2018-06-11T09:58:05.428Z,94.53
2018-06-11T09:59:05.418Z,95.01
2018-06-11T10:00:05.407Z,94.92
2018-06-11T10:01:05.393Z,94.34
2018-06-11T10:02:05.401Z,95.68
2018-06-11T10:03:05.375Z,95.25
2018-06-11T10:04:05.366Z,95.83
2018-06-11T10:05:05.347Z,92.93
2018-06-11T10:06:05.348Z,95.40
2018-06-11T10:07:05.339Z,96.51
2018-06-11T10:08:05.321Z,94.28
2018-06-11T10:09:05.331Z,95.97
2018-06-11T10:10:05.298Z,95.10
2018-06-11T10:11:05.285Z,96.36
2018-06-11T10:12:05.288Z,94.43
2018-06-11T10:13:05.263Z,95.97
2018-06-11T10:14:05.252Z,94.96
2018-06-11T10:15:05.249Z,95.40
2018-06-11T10:16:05.230Z,95.88
2018-06-11T10:17:05.232Z,94.96
2018-06-11T10:18:05.210Z,98.25
2018-06-11T10:19:05.229Z,95.15
2018-06-11T10:20:05.188Z,96.36
2018-06-11T10:21:05.178Z,97.33
2018-06-11T10:22:05.179Z,95.83
2018-06-11T10:23:05.155Z,97.62
2018-06-11T10:24:05.148Z,95.78
2018-06-11T10:25:05.132Z,96.41
2018-06-11T10:26:05.153Z,96.06
2018-06-11T10:27:05.124Z,95.34
2018-06-11T10:28:05.098Z,95.53
2018-06-11T10:29:05.090Z,96.12
2018-06-11T10:30:05.081Z,95.83
2018-06-11T10:31:05.071Z,95.58
2018-06-11T10:32:05.072Z,95.34
2018-06-11T10:33:05.051Z,94.61
2018-06-11T10:34:05.049Z,95.58
2018-06-11T10:35:05.030Z,96.26
2018-06-11T10:36:05.019Z,96.26
2018-06-11T10:37:05.028Z,96.02
2018-06-11T10:38:04.999Z,95.58
2018-06-11T10:39:05.043Z,96.07
2018-06-11T10:40:04.986Z,95.87
2018-06-11T10:41:04.969Z,95.43
2018-06-11T10:42:04.991Z,96.17
2018-06-11T10:43:04.949Z,96.60
2018-06-11T10:44:04.940Z,94.90
2018-06-11T10:45:04.927Z,94.22
2018-06-11T10:46:04.928Z,93.49
2018-06-11T10:47:04.911Z,93.49
2018-06-11T10:48:05.201Z,92.08
2018-06-11T10:49:04.887Z,93.64
2018-06-11T10:50:04.885Z,93.30
2018-06-11T10:51:04.867Z,93.35
2018-06-11T10:52:04.873Z,91.70
2018-06-11T10:53:04.861Z,93.01
2018-06-11T10:54:04.842Z,90.00
2018-06-11T10:55:04.831Z,88.68
2018-06-11T10:56:04.821Z,89.66
2018-06-11T10:57:04.813Z,89.66
2018-06-11T10:58:04.879Z,91.17
2018-06-11T10:59:04.797Z,90.83
2018-06-11T11:00:04.788Z,92.91
2018-06-11T11:01:04.773Z,92.91
2018-06-11T11:02:04.765Z,94.51
2018-06-11T11:03:04.765Z,91.36
2018-06-11T11:04:04.746Z,91.94
2018-06-11T11:05:04.736Z,93.54
2018-06-11T11:06:04.734Z,90.58
2018-06-11T11:07:04.717Z,91.22
2018-06-11T11:08:04.726Z,92.38
2018-06-11T11:09:04.697Z,92.77
2018-06-11T11:10:04.700Z,91.27
2018-06-11T11:11:04.685Z,89.17
2018-06-11T11:12:04.672Z,86.71
2018-06-11T11:13:04.674Z,89.95
2018-06-11T11:14:04.661Z,85.24
2018-06-11T11:15:04.640Z,85.58
2018-06-11T11:16:04.640Z,85.82
2018-06-11T11:17:04.621Z,85.72
2018-06-11T11:18:04.617Z,84.11
2018-06-11T11:19:04.866Z,84.11
2018-06-11T11:20:04.595Z,84.50
2018-06-11T11:21:04.583Z,80.32
2018-06-11T11:22:04.591Z,80.32
2018-06-11T11:23:04.571Z,84.21
2018-06-11T11:24:04.561Z,80.85
2018-06-11T11:25:04.558Z,84.27
2018-06-11T11:26:04.540Z,82.03
2018-06-11T11:27:04.527Z,83.44
2018-06-11T11:28:04.524Z,81.14
2018-06-11T11:29:04.509Z,77.55
2018-06-11T11:30:04.512Z,80.27
2018-06-11T11:31:04.491Z,84.01
2018-06-11T11:32:04.483Z,85.67
2018-06-11T11:33:04.476Z,80.29
2018-06-11T11:34:04.466Z,80.73
2018-06-11T11:35:04.465Z,80.63
2018-06-11T11:36:04.447Z,86.39
2018-06-11T11:37:04.442Z,79.55
2018-06-11T11:38:04.426Z,80.56
2018-06-11T11:39:04.418Z,74.15
2018-06-11T11:40:04.424Z,81.84
2018-06-11T11:41:04.400Z,87.04
2018-06-11T11:42:04.396Z,80.44
2018-06-11T11:43:04.383Z,84.14
2018-06-11T11:44:04.372Z,88.65
2018-06-11T11:45:04.372Z,86.76
2018-06-11T11:46:04.353Z,86.95
2018-06-11T11:47:04.346Z,89.61
2018-06-11T11:48:04.336Z,89.13
2018-06-11T11:49:04.325Z,88.35
2018-06-11T11:50:04.324Z,86.61
2018-06-11T11:51:04.356Z,86.66
2018-06-11T11:52:04.302Z,90.30
2018-06-11T11:53:04.290Z,88.75
2018-06-11T11:54:04.278Z,88.89
2018-06-11T11:55:04.280Z,88.85
2018-06-11T11:56:04.332Z,91.99
2018-06-11T11:57:04.252Z,89.23
2018-06-11T11:58:04.240Z,88.65
2018-06-11T11:59:04.231Z,86.72
2018-06-11T12:00:04.244Z,87.74
2018-06-11T12:01:04.215Z,87.45
2018-06-11T12:02:04.203Z,89.29
2018-06-11T12:03:04.193Z,89.77
2018-06-11T12:04:04.187Z,88.61
2018-06-11T12:05:04.195Z,88.23
2018-06-11T12:06:04.165Z,89.82
2018-06-11T12:07:04.154Z,87.10
2018-06-11T12:08:04.146Z,89.04
2018-06-11T12:09:04.131Z,89.57
2018-06-11T12:10:04.136Z,89.42
2018-06-11T12:11:04.116Z,89.12
2018-06-11T12:12:04.104Z,87.32
2018-06-11T12:13:04.096Z,82.17
2018-06-11T12:14:04.102Z,85.13
2018-06-11T12:15:04.086Z,79.68
2018-06-11T12:16:04.072Z,75.60
2018-06-11T12:17:04.055Z,76.01
2018-06-11T12:18:04.050Z,79.02
2018-06-11T12:19:04.057Z,80.27
2018-06-11T12:20:04.046Z,73.02
2018-06-11T12:21:04.019Z,76.30
2018-06-11T12:22:04.013Z,77.80
2018-06-11T12:23:03.998Z,64.39
2018-06-11T12:24:03.994Z,67.15
2018-06-11T12:25:04.038Z,65.63
2018-06-11T12:26:03.978Z,67.93
2018-06-11T12:27:03.958Z,66.41
2018-06-11T12:28:03.958Z,63.29
2018-06-11T12:29:03.941Z,64.94
2018-06-11T12:30:03.937Z,64.26
2018-06-11T12:31:03.936Z,68.74
2018-06-11T12:32:03.912Z,65.56
2018-06-11T12:33:03.912Z,65.36
2018-06-11T12:34:03.894Z,65.50
2018-06-11T12:35:03.906Z,67.57
2018-06-11T12:36:03.879Z,68.70
2018-06-11T12:37:03.867Z,70.06
2018-06-11T12:38:03.878Z,71.85
2018-06-11T12:39:03.856Z,69.48
2018-06-11T12:40:03.870Z,71.81
2018-06-11T12:41:03.836Z,72.63
2018-06-11T12:42:03.826Z,76.90
2018-06-11T12:43:03.829Z,76.45
2018-06-11T12:44:03.808Z,70.81
2018-06-11T12:45:03.814Z,70.49
2018-06-11T12:46:03.790Z,68.22
2018-06-11T12:47:03.788Z,69.87
2018-06-11T12:48:03.782Z,70.42
2018-06-11T12:49:03.767Z,71.74
2018-06-11T12:50:03.778Z,75.47
2018-06-11T12:51:03.749Z,73.08
2018-06-11T12:52:03.738Z,72.96